Time;durP1;ratioP1;P1;durP2;ratioP2;P2;SDS_P1;SDS_P2;PMS_P1;PMS_P2;Temp;Humidity;BMP_temperature;BMP_pressure;BME280_temperature;BME280_humidity;BME280_pressure;Samples;Min_cycle;Max_cycle;Signal;HPM_P1;HPM_P2
2023/05/03 00:00:12;;;;;;;;;12.00;11.00;;;;;16.02;45.74;101747.97;5091486;27;45983;-72
2023/05/03 00:02:38;;;;;;;;;12.00;11.50;;;;;16.00;45.51;101743.75;5091517;27;48405;-72
2023/05/03 00:05:06;;;;;;;;;9.50;8.25;;;;;15.98;46.05;101740.38;5075995;27;45976;-72
2023/05/03 00:07:32;;;;;;;;;12.50;12.00;;;;;15.94;45.87;101730.03;5075751;27;45616;-72
2023/05/03 00:09:58;;;;;;;;;14.50;12.00;;;;;15.94;45.95;101731.81;5076237;27;45689;-72
2023/05/03 00:12:23;;;;;;;;;11.75;10.00;;;;;15.90;46.02;101733.03;5075965;28;45653;-72
2023/05/03 00:14:49;;;;;;;;;14.75;13.00;;;;;15.86;45.89;101721.84;5075653;27;46624;-74
2023/05/03 00:17:14;;;;;;;;;11.75;11.00;;;;;15.83;46.14;101724.72;5075788;27;45668;-72
2023/05/03 00:19:39;;;;;;;;;11.25;11.00;;;;;15.80;45.80;101727.59;5091785;27;45535;-72
2023/05/03 00:25:26;;;;;;;;;13.75;10.75;;;;;15.69;46.32;101738.13;5075548;28;45621;-72
2023/05/03 00:27:52;;;;;;;;;11.00;10.75;;;;;15.70;45.94;101745.09;5091400;27;45741;-73
2023/05/03 00:30:18;;;;;;;;;9.75;9.75;;;;;15.69;46.01;101743.41;5075857;27;45468;-73
2023/05/03 00:32:43;;;;;;;;;13.50;11.25;;;;;15.67;45.88;101744.47;5075514;27;46749;-73
2023/05/03 00:35:11;;;;;;;;;11.50;10.25;;;;;15.62;45.85;101743.97;5075625;27;45612;-73
2023/05/03 00:37:37;;;;;;;;;8.75;7.00;;;;;15.59;46.28;101734.47;5075805;28;45699;-73
2023/05/03 00:40:03;;;;;;;;;8.25;8.25;;;;;15.59;45.77;101749.47;5075492;27;45700;-73
2023/05/03 00:42:29;;;;;;;;;7.50;7.50;;;;;15.57;45.74;101738.19;5075530;27;47468;-73
2023/05/03 00:44:55;;;;;;;;;9.00;6.25;;;;;15.55;45.82;101735.63;5075250;27;46119;-73
2023/05/03 00:47:21;;;;;;;;;7.75;7.50;;;;;15.50;45.46;101740.38;5075463;27;45564;-73
2023/05/03 00:49:46;;;;;;;;;10.75;9.00;;;;;15.48;45.58;101737.03;5075837;27;45667;-73
2023/05/03 00:55:34;;;;;;;;;9.25;9.00;;;;;15.41;45.44;101728.72;5075149;28;46063;-73
2023/05/03 00:58:00;;;;;;;;;11.50;9.75;;;;;15.33;45.59;101728.41;5075511;27;45713;-72
2023/05/03 01:00:25;;;;;;;;;12.00;9.75;;;;;15.26;45.77;101727.19;5075295;27;45537;-72
2023/05/03 01:02:51;;;;;;;;;8.25;7.75;;;;;15.25;45.75;101719.38;5075426;28;45762;-72
2023/05/03 01:05:17;;;;;;;;;13.00;10.50;;;;;15.26;45.24;101721.91;5074832;28;46741;-72
2023/05/03 01:11:03;;;;;;;;;9.50;8.50;;;;;15.22;45.71;101722.25;5074461;28;45608;-72
2023/05/03 01:13:41;;;;;;;;;8.33;7.33;;;;;15.19;45.52;101720.66;5075025;28;45549;-72
2023/05/03 01:16:30;;;;;;;;;8.75;7.25;;;;;15.19;45.54;101722.47;5090345;27;46667;-72
2023/05/03 01:19:00;;;;;;;;;10.50;9.00;;;;;15.18;45.37;101718.13;5074870;28;45733;-72
2023/05/03 01:21:28;;;;;;;;;10.00;7.00;;;;;15.15;45.30;101721.84;5074889;28;45844;-72
2023/05/03 01:23:55;;;;;;;;;6.00;5.75;;;;;15.13;45.46;101715.81;5074945;27;46849;-72
2023/05/03 01:26:26;;;;;;;;;11.00;7.75;;;;;15.12;45.31;101720.25;5074474;27;47368;-73
2023/05/03 01:28:52;;;;;;;;;9.00;8.50;;;;;15.05;45.17;101721.69;5073299;28;45759;-72
2023/05/03 01:31:43;;;;;;;;;8.00;7.00;;;;;15.04;45.23;101730.53;5075163;28;45510;-72
2023/05/03 01:34:17;;;;;;;;;10.50;9.00;;;;;15.02;45.06;101727.16;5090165;27;48018;-72
2023/05/03 01:36:43;;;;;;;;;10.00;7.50;;;;;15.00;45.10;101729.09;5074290;27;46997;-72
2023/05/03 01:39:19;;;;;;;;;11.00;10.00;;;;;14.98;45.53;101724.84;5074166;27;45678;-72
2023/05/03 01:41:48;;;;;;;;;13.00;10.75;;;;;14.95;45.66;101728.53;5074833;27;45830;-72
2023/05/03 01:44:15;;;;;;;;;12.25;9.50;;;;;14.91;45.67;101728.88;5072953;28;48830;-72
2023/05/03 01:46:44;;;;;;;;;18.25;13.25;;;;;14.85;45.76;101730.16;5074430;27;46021;-72
2023/05/03 01:49:10;;;;;;;;;14.25;12.75;;;;;14.77;45.85;101737.78;5074127;27;45615;-72
2023/05/03 01:51:35;;;;;;;;;14.75;12.00;;;;;14.69;46.53;101738.31;5074255;27;45683;-72
2023/05/03 01:54:01;;;;;;;;;13.50;12.50;;;;;14.62;46.40;101739.72;5072956;27;46454;-72
2023/05/03 01:56:26;;;;;;;;;18.00;13.00;;;;;14.55;46.71;101737.59;5073242;27;46359;-72
2023/05/03 01:58:52;;;;;;;;;13.25;12.75;;;;;14.49;46.59;101749.41;5074106;28;45568;-73
2023/05/03 02:01:17;;;;;;;;;16.00;12.50;;;;;14.45;46.89;101736.56;5074256;27;45631;-72
2023/05/03 02:03:42;;;;;;;;;15.25;13.00;;;;;14.38;47.25;101740.56;5089664;27;47620;-72
2023/05/03 02:06:08;;;;;;;;;13.75;12.00;;;;;14.32;47.16;101741.78;5074083;27;45922;-72
2023/05/03 02:11:55;;;;;;;;;15.25;12.25;;;;;14.17;47.17;101740.19;5074096;28;45595;-72
2023/05/03 02:14:20;;;;;;;;;11.00;10.75;;;;;14.12;47.63;101737.03;5073653;27;46362;-72
2023/05/03 02:16:45;;;;;;;;;15.50;14.50;;;;;14.09;47.99;101735.44;5089629;27;46795;-72
2023/05/03 02:19:11;;;;;;;;;15.50;12.50;;;;;14.06;47.65;101734.81;5073725;27;45640;-72
2023/05/03 02:21:36;;;;;;;;;14.25;12.00;;;;;14.02;48.11;101726.28;5073921;27;45958;-72
2023/05/03 02:24:02;;;;;;;;;17.50;14.25;;;;;14.01;48.19;101739.53;5088714;27;48238;-72
2023/05/03 02:26:28;;;;;;;;;13.25;12.25;;;;;14.01;48.12;101742.19;5073583;27;46354;-74
2023/05/03 02:28:55;;;;;;;;;15.75;12.75;;;;;13.99;48.42;101739.66;5073693;27;45763;-73
2023/05/03 02:31:20;;;;;;;;;16.00;14.00;;;;;13.98;48.53;101737.94;5074267;27;45773;-72
2023/05/03 02:33:46;;;;;;;;;16.75;12.50;;;;;13.95;48.57;101737.31;5073962;27;46520;-73
2023/05/03 02:36:12;;;;;;;;;15.25;14.25;;;;;13.92;48.80;101741.03;5073386;27;46563;-72
2023/05/03 02:42:13;;;;;;;;;15.00;14.00;;;;;13.86;48.92;101734.38;5064937;28;46399;-74
2023/05/03 02:44:38;;;;;;;;;13.25;12.50;;;;;13.83;48.76;101733.72;5072152;28;48597;-71
2023/05/03 02:47:04;;;;;;;;;19.00;16.25;;;;;13.78;49.32;101735.81;5073231;27;46352;-73
2023/05/03 02:49:30;;;;;;;;;19.25;15.25;;;;;13.72;49.03;101736.22;5073461;27;45616;-72
2023/05/03 02:51:55;;;;;;;;;15.00;14.00;;;;;13.66;49.17;101745.34;5073245;27;45613;-72
2023/05/03 02:54:21;;;;;;;;;14.25;13.50;;;;;13.61;48.83;101738.69;5073454;27;45487;-72
2023/05/03 02:56:46;;;;;;;;;17.00;12.00;;;;;13.54;49.18;101737.44;5073459;27;46591;-72
2023/05/03 02:59:12;;;;;;;;;18.50;17.75;;;;;13.49;49.63;101732.47;5073181;27;45687;-72
2023/05/03 03:01:37;;;;;;;;;17.50;14.75;;;;;13.45;49.47;101738.88;5073382;27;45847;-72
2023/05/03 03:04:03;;;;;;;;;20.25;14.75;;;;;13.42;49.49;101734.66;5072960;27;46510;-72
2023/05/03 03:06:28;;;;;;;;;15.75;14.00;;;;;13.38;49.81;101727.91;5073302;28;45881;-72
2023/05/03 03:12:15;;;;;;;;;14.75;12.25;;;;;13.33;49.74;101716.00;5073544;28;45588;-72
2023/05/03 03:14:41;;;;;;;;;14.25;13.25;;;;;13.30;49.94;101713.53;5073057;27;46481;-72
2023/05/03 03:17:10;;;;;;;;;14.50;13.00;;;;;13.30;49.92;101711.75;5073225;27;45906;-72
2023/05/03 03:19:35;;;;;;;;;13.50;11.00;;;;;13.30;50.10;101714.38;5073033;27;45632;-72
2023/05/03 03:22:00;;;;;;;;;20.50;13.75;;;;;13.28;49.96;101702.28;5073531;27;45700;-72
2023/05/03 03:27:47;;;;;;;;;15.75;14.50;;;;;13.25;50.58;101705.94;5072814;28;45806;-72
2023/05/03 03:30:13;;;;;;;;;15.50;13.00;;;;;13.23;50.43;101699.94;5088356;27;45561;-72
2023/05/03 03:32:38;;;;;;;;;12.25;10.75;;;;;13.21;50.01;101704.47;5073488;27;45531;-72
2023/05/03 03:35:04;;;;;;;;;13.75;9.75;;;;;13.20;50.40;101696.66;5076448;27;46977;-72
2023/05/03 03:37:29;;;;;;;;;20.50;15.75;;;;;13.17;50.48;101692.41;5076480;27;46044;-72
2023/05/03 03:39:55;;;;;;;;;18.75;13.50;;;;;13.16;50.51;101688.13;5075652;27;45776;-72
2023/05/03 03:42:22;;;;;;;;;15.25;14.00;;;;;13.12;50.22;101686.63;5076542;27;45796;-72
2023/05/03 03:44:48;;;;;;;;;18.25;16.25;;;;;13.09;50.64;101683.31;5092088;27;47712;-72
2023/05/03 03:47:13;;;;;;;;;15.50;14.00;;;;;13.04;50.40;101681.84;5075991;27;47028;-73
2023/05/03 03:49:39;;;;;;;;;14.00;11.75;;;;;13.02;50.70;101688.13;5076326;27;45682;-72
2023/05/03 03:52:05;;;;;;;;;14.25;11.00;;;;;13.01;50.93;101687.28;5076340;27;45679;-72
2023/05/03 03:57:52;;;;;;;;;15.75;13.75;;;;;12.98;50.66;101684.84;5076097;28;46071;-71
2023/05/03 04:00:17;;;;;;;;;15.00;12.75;;;;;12.96;50.82;101686.72;5076068;27;45700;-71
2023/05/03 04:02:43;;;;;;;;;16.00;14.25;;;;;12.91;50.81;101682.69;5076395;27;45770;-73
2023/05/03 04:05:08;;;;;;;;;16.00;15.00;;;;;12.89;51.13;101689.84;5076089;27;45692;-74
2023/05/03 04:07:33;;;;;;;;;20.50;16.25;;;;;12.85;51.23;101683.09;5075818;27;46249;-73
2023/05/03 04:13:20;;;;;;;;;15.00;13.00;;;;;12.79;51.38;101683.50;5075805;28;45522;-73
2023/05/03 04:15:46;;;;;;;;;17.50;14.50;;;;;12.75;51.51;101677.56;5075919;27;46527;-73
2023/05/03 04:18:11;;;;;;;;;18.50;15.50;;;;;12.72;51.39;101684.81;5074029;28;47176;-72
2023/05/03 04:20:37;;;;;;;;;17.25;14.50;;;;;12.68;51.33;101689.44;5075653;27;45641;-72
2023/05/03 04:23:02;;;;;;;;;19.00;16.25;;;;;12.63;51.61;101688.88;5075648;27;45540;-72
2023/05/03 04:25:30;;;;;;;;;22.25;20.50;;;;;12.59;51.52;101687.34;5090984;27;47263;-72
2023/05/03 04:27:56;;;;;;;;;26.50;20.50;;;;;12.55;51.78;101688.50;5075471;28;46010;-72
2023/05/03 04:30:22;;;;;;;;;25.00;21.25;;;;;12.50;51.92;101688.78;5075694;27;45577;-72
2023/05/03 04:32:47;;;;;;;;;20.75;18.50;;;;;12.46;51.80;101692.53;5075467;27;45729;-72
2023/05/03 04:35:12;;;;;;;;;23.00;19.25;;;;;12.42;51.98;101688.38;5075644;27;45571;-72
2023/05/03 04:37:40;;;;;;;;;21.25;16.25;;;;;12.42;52.12;101687.53;5075562;27;45607;-72
2023/05/03 04:43:27;;;;;;;;;18.25;16.50;;;;;12.39;52.29;101688.59;5064215;28;45791;-74
2023/05/03 04:45:53;;;;;;;;;20.00;17.75;;;;;12.38;52.37;101692.16;5075349;27;45649;-72
2023/05/03 04:48:18;;;;;;;;;18.00;14.00;;;;;12.34;52.83;101690.66;5075594;27;45584;-74
2023/05/03 04:50:44;;;;;;;;;21.50;17.00;;;;;12.33;52.44;101690.75;5091274;27;45548;-73
2023/05/03 04:53:12;;;;;;;;;14.00;13.75;;;;;12.32;52.68;101699.56;5075501;27;45771;-73
2023/05/03 04:55:38;;;;;;;;;19.00;14.50;;;;;12.30;52.81;101694.41;5075322;27;45806;-73
2023/05/03 04:58:03;;;;;;;;;15.50;14.50;;;;;12.31;52.83;101692.63;5075385;28;45666;-74
2023/05/03 05:00:29;;;;;;;;;15.25;14.75;;;;;12.30;52.84;101691.78;5075432;27;45608;-73
2023/05/03 05:02:56;;;;;;;;;14.25;13.50;;;;;12.32;52.83;101689.03;5075360;27;45784;-73
2023/05/03 05:05:22;;;;;;;;;14.00;13.25;;;;;12.31;52.79;101685.56;5074943;27;46608;-74
2023/05/03 05:07:47;;;;;;;;;15.00;14.00;;;;;12.32;52.94;101689.91;5073759;28;46984;-73
2023/05/03 05:13:34;;;;;;;;;19.75;14.00;;;;;12.33;53.13;101691.59;5074892;28;45605;-73
2023/05/03 05:15:59;;;;;;;;;15.25;13.25;;;;;12.34;53.07;101695.06;5074755;27;46325;-74
2023/05/03 05:18:25;;;;;;;;;23.75;16.50;;;;;12.37;52.70;101695.72;5074841;27;45687;-73
2023/05/03 05:20:50;;;;;;;;;14.50;12.00;;;;;12.39;52.96;101695.63;5074819;27;45587;-73
2023/05/03 05:23:15;;;;;;;;;20.00;16.25;;;;;12.40;52.86;101694.69;5075153;27;45624;-73
2023/05/03 05:29:02;;;;;;;;;15.00;13.25;;;;;12.40;52.92;101685.03;5074327;28;45634;-73
2023/05/03 05:31:28;;;;;;;;;18.00;15.75;;;;;12.41;52.67;101691.97;5074040;27;45705;-75
2023/05/03 05:33:55;;;;;;;;;18.25;16.50;;;;;12.44;53.08;101686.53;5076385;27;45572;-76
2023/05/03 05:36:20;;;;;;;;;15.25;12.50;;;;;12.47;53.17;101686.31;5073654;27;47221;-76
2023/05/03 05:38:45;;;;;;;;;14.25;12.25;;;;;12.51;53.03;101693.09;5074805;27;45681;-76
2023/05/03 05:41:11;;;;;;;;;19.50;15.50;;;;;12.53;52.45;101693.84;5074692;27;45550;-77
2023/05/03 05:43:36;;;;;;;;;15.00;15.00;;;;;12.56;52.90;101688.41;5074843;27;45761;-78
2023/05/03 05:46:02;;;;;;;;;18.75;14.50;;;;;12.62;52.91;101684.53;5074443;27;45620;-79
2023/05/03 05:48:27;;;;;;;;;16.00;14.75;;;;;12.66;52.97;101695.72;5074709;27;46678;-79
2023/05/03 05:50:53;;;;;;;;;16.00;15.25;;;;;12.70;53.04;101692.78;5074439;27;45552;-77
2023/05/03 05:53:18;;;;;;;;;17.50;15.00;;;;;12.75;52.74;101689.88;5074289;27;45938;-75
2023/05/03 05:59:05;;;;;;;;;14.50;13.00;;;;;12.81;52.13;101700.84;5074199;28;45849;-77
2023/05/03 06:01:32;;;;;;;;;14.25;13.25;;;;;12.82;52.67;101697.28;5074275;27;45623;-77
2023/05/03 06:03:57;;;;;;;;;15.50;13.00;;;;;12.86;52.39;101697.94;5074298;27;45800;-76
2023/05/03 06:06:23;;;;;;;;;15.75;15.25;;;;;12.89;52.49;101698.59;5074060;27;46282;-77
2023/05/03 06:08:50;;;;;;;;;16.25;14.50;;;;;12.92;52.37;101708.91;5074237;27;47378;-77
2023/05/03 06:14:37;;;;;;;;;15.75;14.50;;;;;12.96;52.36;101715.66;5074281;28;45498;-76
2023/05/03 06:17:02;;;;;;;;;13.75;10.50;;;;;12.98;52.39;101712.94;5073971;27;46380;-72
2023/05/03 06:19:28;;;;;;;;;16.75;15.00;;;;;13.01;52.17;101707.47;5072784;28;46094;-76
2023/05/03 06:21:53;;;;;;;;;15.00;14.25;;;;;13.01;52.17;101700.44;5073983;27;45663;-74
2023/05/03 06:24:19;;;;;;;;;17.75;17.00;;;;;13.01;51.96;101703.06;5074216;27;45935;-73
2023/05/03 06:26:46;;;;;;;;;18.50;14.00;;;;;13.00;51.77;101696.13;5073778;27;47477;-72
2023/05/03 06:29:11;;;;;;;;;14.00;13.75;;;;;13.00;51.79;101698.75;5074169;27;46213;-73
2023/05/03 06:31:37;;;;;;;;;14.25;14.00;;;;;12.99;52.01;101697.06;5074168;27;45668;-75
2023/05/03 06:34:02;;;;;;;;;14.50;10.50;;;;;13.00;52.24;101698.75;5074063;27;45625;-76
2023/05/03 06:36:29;;;;;;;;;17.25;14.00;;;;;13.02;51.74;101693.38;5089505;27;47088;-74
2023/05/03 06:38:55;;;;;;;;;19.00;16.75;;;;;13.04;52.02;101692.34;5073692;27;47088;-76
2023/05/03 06:44:42;;;;;;;;;19.75;16.75;;;;;13.03;51.73;101695.06;5062803;28;45674;-73
2023/05/03 06:47:08;;;;;;;;;21.25;17.25;;;;;13.04;51.96;101696.78;5073593;27;46636;-76
2023/05/03 06:49:33;;;;;;;;;19.50;17.00;;;;;13.06;51.68;101699.31;5073428;27;47198;-75
2023/05/03 06:51:59;;;;;;;;;15.25;15.00;;;;;13.08;51.62;101698.25;5073458;27;45651;-75
2023/05/03 06:54:24;;;;;;;;;20.75;19.25;;;;;13.09;51.75;101694.69;5073746;27;45609;-76
2023/05/03 07:00:12;;;;;;;;;15.00;14.25;;;;;13.10;51.40;101696.38;5073427;28;46109;-75
2023/05/03 07:02:37;;;;;;;;;23.25;17.00;;;;;13.10;51.90;101679.75;5073670;27;45581;-75
2023/05/03 07:05:03;;;;;;;;;19.25;16.00;;;;;13.11;51.90;101679.66;5073839;27;45679;-74
2023/05/03 07:07:28;;;;;;;;;19.50;17.00;;;;;13.12;51.52;101678.72;5073814;27;47629;-73
2023/05/03 07:09:53;;;;;;;;;23.75;17.50;;;;;13.12;51.72;101685.81;5077050;27;45920;-75
2023/05/03 07:12:19;;;;;;;;;16.50;14.00;;;;;13.12;52.03;101686.63;5077200;27;45586;-75
2023/05/03 07:14:44;;;;;;;;;17.50;15.00;;;;;13.13;51.91;101688.31;5077240;27;46006;-75
2023/05/03 07:17:10;;;;;;;;;21.75;17.75;;;;;13.17;51.98;101688.97;5076727;27;47228;-76
2023/05/03 07:19:36;;;;;;;;;18.75;16.00;;;;;13.22;51.75;101679.00;5092296;27;46019;-74
2023/05/03 07:22:02;;;;;;;;;22.75;20.00;;;;;13.24;51.75;101675.31;5076822;27;45948;-74
2023/05/03 07:24:28;;;;;;;;;21.75;19.25;;;;;13.27;51.66;101675.13;5077010;27;45527;-74
2023/05/03 07:30:15;;;;;;;;;19.00;15.25;;;;;13.34;51.86;101678.16;5076811;28;45833;-74
2023/05/03 07:32:40;;;;;;;;;16.50;15.00;;;;;13.39;51.63;101669.03;5075305;28;45545;-73
2023/05/03 07:35:06;;;;;;;;;20.25;16.50;;;;;13.44;51.61;101671.38;5075303;28;45626;-74
2023/05/03 07:37:32;;;;;;;;;24.00;20.50;;;;;13.49;51.70;101666.66;5076528;27;47264;-73
2023/05/03 07:39:57;;;;;;;;;19.50;17.50;;;;;13.51;51.25;101663.91;5076578;27;46362;-73
2023/05/03 07:45:44;;;;;;;;;18.75;16.75;;;;;13.59;51.49;101651.09;5066003;28;45646;-73
2023/05/03 07:48:10;;;;;;;;;22.00;16.25;;;;;13.62;51.11;101656.97;5076336;27;47719;-75
2023/05/03 07:50:35;;;;;;;;;17.00;14.50;;;;;13.64;51.27;101649.84;5076628;27;45727;-75
2023/05/03 07:53:00;;;;;;;;;21.75;19.00;;;;;13.69;51.21;101636.34;5076407;27;45589;-72
2023/05/03 07:55:27;;;;;;;;;22.75;19.00;;;;;13.73;51.39;101632.56;5075364;28;45588;-74
2023/05/03 07:57:57;;;;;;;;;16.25;16.00;;;;;13.78;51.02;101633.09;5074426;28;47574;-74
2023/05/03 08:00:22;;;;;;;;;17.25;16.00;;;;;13.80;51.04;101631.19;5091869;27;47189;-73
2023/05/03 08:02:48;;;;;;;;;19.25;16.50;;;;;13.84;51.04;101638.78;5076379;27;45594;-74
2023/05/03 08:05:13;;;;;;;;;17.50;17.25;;;;;13.88;51.11;101618.34;5076102;27;45805;-77
2023/05/03 08:07:38;;;;;;;;;19.00;16.00;;;;;13.94;50.73;101630.25;5076141;27;47297;-77
2023/05/03 08:10:05;;;;;;;;;17.50;16.50;;;;;13.99;50.81;101625.50;5076033;27;45763;-75
2023/05/03 08:15:52;;;;;;;;;20.25;18.25;;;;;14.08;50.73;101619.63;5076173;28;45506;-76
2023/05/03 08:18:17;;;;;;;;;14.50;13.75;;;;;14.14;50.63;101622.63;5075856;27;46409;-78
2023/05/03 08:20:43;;;;;;;;;19.00;16.50;;;;;14.20;50.92;101618.72;5076111;27;45794;-74
2023/05/03 08:23:10;;;;;;;;;17.50;16.00;;;;;14.25;50.26;101604.28;5075978;27;45582;-73
2023/05/03 08:25:36;;;;;;;;;18.50;15.75;;;;;14.32;50.67;101609.13;5076003;28;45685;-74
2023/05/03 08:28:01;;;;;;;;;20.25;18.25;;;;;14.38;50.53;101609.56;5076020;27;45707;-74
2023/05/03 08:30:27;;;;;;;;;12.00;11.75;;;;;14.44;50.51;101613.56;5075960;27;46944;-76
2023/05/03 08:32:53;;;;;;;;;20.75;18.25;;;;;14.48;50.31;101615.88;5075933;27;45553;-73
2023/05/03 08:35:18;;;;;;;;;20.50;17.50;;;;;14.51;49.80;101609.56;5076603;27;45481;-73
2023/05/03 08:37:44;;;;;;;;;23.25;19.00;;;;;14.53;49.96;101605.84;5076068;27;45534;-74
2023/05/03 08:40:12;;;;;;;;;23.75;16.00;;;;;14.57;49.92;101609.97;5075700;27;46269;-73
2023/05/03 08:45:59;;;;;;;;;22.50;17.00;;;;;14.68;49.90;101596.81;5073275;28;45577;-73
2023/05/03 08:48:25;;;;;;;;;17.00;16.25;;;;;14.75;49.77;101606.94;5075641;27;46369;-72
2023/05/03 08:50:52;;;;;;;;;19.50;18.00;;;;;14.82;49.94;101606.38;5074225;28;46596;-73
2023/05/03 08:53:18;;;;;;;;;17.75;16.25;;;;;14.86;49.40;101594.63;5075672;27;45810;-74
2023/05/03 08:55:44;;;;;;;;;20.50;15.25;;;;;14.93;49.43;101601.16;5075465;27;45624;-73
2023/05/03 09:01:34;;;;;;;;;13.25;11.50;;;;;15.10;49.23;101592.84;5075339;28;46278;-76
2023/05/03 09:03:59;;;;;;;;;16.00;13.00;;;;;15.19;49.24;101593.94;5075177;27;45636;-75
2023/05/03 09:06:25;;;;;;;;;14.25;13.00;;;;;15.27;49.40;101583.69;5075008;27;45940;-75
2023/05/03 09:08:50;;;;;;;;;13.75;11.50;;;;;15.34;48.85;101591.94;5075295;27;46300;-76
2023/05/03 09:11:28;;;;;;;;;11.00;11.00;;;;;15.41;48.70;101582.63;5075300;27;47592;-76
2023/05/03 09:14:06;;;;;;;;;12.75;12.75;;;;;15.50;48.54;101588.03;5075037;27;45704;-77
2023/05/03 09:16:31;;;;;;;;;11.50;11.50;;;;;15.57;48.58;101571.75;5075159;27;45757;-73
2023/05/03 09:19:05;;;;;;;;;12.75;11.00;;;;;15.63;48.31;101584.50;5073718;28;46869;-74
2023/05/03 09:21:31;;;;;;;;;12.50;11.75;;;;;15.70;48.25;101575.16;5075181;27;46268;-75
2023/05/03 09:23:57;;;;;;;;;12.50;12.00;;;;;15.73;48.03;101573.09;5074795;27;45783;-73
2023/05/03 09:26:34;;;;;;;;;14.25;13.25;;;;;15.80;47.86;101582.25;5074763;27;45717;-75
2023/05/03 09:29:01;;;;;;;;;15.50;14.00;;;;;15.87;47.66;101578.16;5074996;27;46316;-77
2023/05/03 09:31:28;;;;;;;;;14.50;13.50;;;;;15.92;46.88;101565.41;5073883;27;47024;-76
2023/05/03 09:33:54;;;;;;;;;14.25;13.00;;;;;15.97;47.08;101580.09;5074682;27;45463;-77
2023/05/03 09:36:19;;;;;;;;;13.00;11.25;;;;;16.01;46.38;101577.09;5074625;27;45603;-77
2023/05/03 09:38:45;;;;;;;;;11.75;10.25;;;;;16.08;46.47;101580.09;5073296;28;46520;-78
2023/05/03 09:41:10;;;;;;;;;12.00;11.75;;;;;16.11;46.35;101574.56;5074939;27;45877;-76
2023/05/03 09:47:05;;;;;;;;;14.75;13.50;;;;;16.21;46.19;101570.22;5063500;28;45891;-76
2023/05/03 09:49:32;;;;;;;;;12.25;11.50;;;;;16.27;46.07;101580.31;5073052;27;46586;-75
2023/05/03 09:51:58;;;;;;;;;14.25;13.00;;;;;16.31;46.35;101563.25;5088664;27;46331;-75
2023/05/03 09:54:24;;;;;;;;;16.50;13.50;;;;;16.37;46.47;101568.03;5072994;27;45730;-74
2023/05/03 09:56:51;;;;;;;;;12.75;11.25;;;;;16.45;46.31;101564.78;5072865;27;45678;-75
2023/05/03 09:59:16;;;;;;;;;12.25;9.75;;;;;16.52;46.59;101566.00;5072905;27;46630;-75
2023/05/03 10:01:42;;;;;;;;;13.00;12.75;;;;;16.61;46.37;101570.56;5072750;27;46148;-77
2023/05/03 10:04:09;;;;;;;;;10.50;10.50;;;;;16.65;45.88;101564.91;5073010;27;45596;-75
2023/05/03 10:06:37;;;;;;;;;13.75;12.25;;;;;16.64;45.59;101563.19;5072937;28;45932;-78
2023/05/03 10:09:29;;;;;;;;;11.00;9.75;;;;;16.69;46.04;101550.44;5071047;28;47788;-77
2023/05/03 10:11:58;;;;;;;;;9.00;8.00;;;;;16.75;46.00;101560.53;5088235;27;46215;-77
2023/05/03 10:14:23;;;;;;;;;12.50;10.75;;;;;16.81;45.90;101548.59;5088352;27;45824;-78
2023/05/03 10:16:57;;;;;;;;;14.00;12.00;;;;;16.85;46.09;101551.81;5072576;27;45568;-78
2023/05/03 10:19:33;;;;;;;;;13.00;10.00;;;;;16.88;45.88;101544.50;5072244;27;46528;-79
2023/05/03 10:22:10;;;;;;;;;14.00;13.00;;;;;16.93;45.61;101544.09;5072277;27;47263;-76
2023/05/03 10:24:37;;;;;;;;;11.00;9.50;;;;;16.94;45.91;101538.69;5072177;27;45447;-76
2023/05/03 10:27:06;;;;;;;;;15.00;10.75;;;;;17.01;46.17;101546.94;5087960;27;45739;-76
2023/05/03 10:29:44;;;;;;;;;10.50;9.50;;;;;17.06;46.09;101531.50;5072041;27;46673;-75
2023/05/03 10:32:28;;;;;;;;;14.50;14.00;;;;;17.12;45.80;101525.69;5072392;27;46185;-76
2023/05/03 10:35:13;;;;;;;;;11.75;11.50;;;;;17.14;45.68;101523.78;5072424;28;45814;-76
2023/05/03 10:37:43;;;;;;;;;9.00;8.75;;;;;17.18;45.39;101523.38;5072371;27;45692;-75
2023/05/03 10:40:10;;;;;;;;;10.25;9.50;;;;;17.25;45.81;101514.94;5072327;27;47399;-77
2023/05/03 10:42:37;;;;;;;;;8.75;7.25;;;;;17.29;45.78;101522.47;5071862;27;47047;-77
2023/05/03 10:45:03;;;;;;;;;14.75;13.50;;;;;17.34;45.15;101514.13;5072265;27;45584;-76
2023/05/03 10:47:29;;;;;;;;;13.50;13.50;;;;;17.35;45.78;101527.25;4991188;27;2297529;-76
2023/05/03 10:50:13;;;;;;;;;9.50;9.00;;;;;17.38;45.20;101507.63;5070168;28;46960;-78
2023/05/03 10:52:38;;;;;;;;;14.50;13.25;;;;;17.39;45.59;101496.88;5073382;28;47196;-78
2023/05/03 10:55:23;;;;;;;;;9.50;9.50;;;;;17.42;45.18;101490.50;5089114;27;45667;-76
2023/05/03 10:57:52;;;;;;;;;6.75;6.00;;;;;17.47;45.52;101497.09;5073900;27;45602;-77
2023/05/03 11:00:43;;;;;;;;;11.75;10.25;;;;;17.56;45.58;101495.44;5073371;27;46888;-76
2023/05/03 11:03:12;;;;;;;;;13.00;10.75;;;;;17.59;45.70;101481.94;5073189;27;45970;-77
2023/05/03 11:05:38;;;;;;;;;10.00;10.00;;;;;17.63;45.55;101490.50;5073230;27;45791;-75
2023/05/03 11:08:16;;;;;;;;;11.50;9.50;;;;;17.68;45.32;101482.97;5073695;27;45607;-76
2023/05/03 11:10:43;;;;;;;;;15.25;11.75;;;;;17.73;45.29;101486.06;5072260;28;45612;-78
2023/05/03 11:13:09;;;;;;;;;11.00;10.00;;;;;17.78;45.26;101487.34;5072232;28;45880;-77
2023/05/03 11:15:35;;;;;;;;;11.75;10.75;;;;;17.84;45.40;101472.72;5073068;27;45456;-74
2023/05/03 11:18:00;;;;;;;;;10.75;9.75;;;;;17.88;45.20;101479.41;5072671;28;45663;-78
2023/05/03 11:20:26;;;;;;;;;11.00;9.25;;;;;17.92;44.98;101473.69;5071907;28;48009;-75
2023/05/03 11:22:51;;;;;;;;;10.75;9.50;;;;;17.97;45.23;101465.38;5073109;27;46149;-75
2023/05/03 11:25:18;;;;;;;;;11.50;10.25;;;;;18.04;44.72;101461.19;5073265;27;45662;-76
2023/05/03 11:27:46;;;;;;;;;10.50;9.00;;;;;18.07;45.08;101452.13;5073404;28;45627;-78
2023/05/03 11:30:12;;;;;;;;;10.00;9.50;;;;;18.10;45.33;101455.34;5073316;28;45588;-78
2023/05/03 11:32:38;;;;;;;;;9.75;9.00;;;;;18.14;44.98;101451.41;5071335;28;47846;-78
2023/05/03 11:35:06;;;;;;;;;10.50;9.75;;;;;18.18;44.49;101447.53;5073134;27;45633;-75
2023/05/03 11:37:31;;;;;;;;;11.75;10.00;;;;;18.24;45.37;101441.69;5073269;27;45959;-76
2023/05/03 11:39:57;;;;;;;;;11.00;10.50;;;;;18.31;45.20;101444.59;5073226;27;46572;-76
2023/05/03 11:42:24;;;;;;;;;11.75;10.75;;;;;18.36;45.07;101435.25;5071642;28;46688;-77
2023/05/03 11:48:13;;;;;;;;;11.00;9.25;;;;;18.46;45.20;101430.78;5061850;28;45687;-77
2023/05/03 11:50:55;;;;;;;;;11.50;9.50;;;;;18.54;44.91;101427.47;5055057;28;47315;-77
2023/05/03 11:53:25;;;;;;;;;9.75;9.25;;;;;18.57;44.89;101411.25;5072807;27;46058;-77
2023/05/03 11:55:53;;;;;;;;;11.00;10.50;;;;;18.64;44.54;101419.50;5076376;27;45595;-77
2023/05/03 11:58:25;;;;;;;;;11.00;10.75;;;;;18.64;44.76;101400.91;5076642;27;45597;-78
2023/05/03 12:00:53;;;;;;;;;14.50;11.00;;;;;18.66;44.49;101398.97;5076610;28;46293;-73
2023/05/03 12:03:21;;;;;;;;;11.75;10.50;;;;;18.64;44.25;101393.78;5091967;27;46740;-77
2023/05/03 12:05:47;;;;;;;;;11.25;9.75;;;;;18.66;44.04;101394.50;5076264;27;45698;-76
2023/05/03 12:08:14;;;;;;;;;10.00;9.75;;;;;18.66;44.50;101393.66;5076114;27;45830;-77
2023/05/03 12:10:40;;;;;;;;;9.00;8.00;;;;;18.73;44.72;101382.31;5076250;27;47618;-77
2023/05/03 12:13:06;;;;;;;;;9.50;9.00;;;;;18.81;44.27;101384.25;5075951;27;47107;-78
2023/05/03 12:15:32;;;;;;;;;12.00;9.00;;;;;18.88;44.89;101380.06;5074520;28;45759;-78
2023/05/03 12:17:59;;;;;;;;;10.25;9.75;;;;;18.95;44.41;101373.19;5076247;27;45518;-77
2023/05/03 12:20:27;;;;;;;;;10.25;9.75;;;;;18.99;43.97;101379.91;5074173;28;47661;-76
2023/05/03 12:22:55;;;;;;;;;10.00;10.00;;;;;19.01;44.19;101372.59;5075928;27;47325;-77
2023/05/03 12:25:21;;;;;;;;;11.00;10.00;;;;;19.03;43.99;101372.47;5091805;27;45769;-78
2023/05/03 12:27:46;;;;;;;;;9.75;9.00;;;;;19.07;43.77;101365.88;5076064;27;45645;-77